createdAt,value
2023-09-08T00:02:14.928Z,100.00
2023-09-08T00:04:41.750Z,100.00
2023-09-08T00:07:08.501Z,100.00
2023-09-08T00:09:35.208Z,100.00
2023-09-08T00:12:02.667Z,100.00
2023-09-08T00:14:29.549Z,100.00
2023-09-08T00:16:56.309Z,100.00
2023-09-08T00:19:24.463Z,100.00
2023-09-08T00:21:51.668Z,100.00
2023-09-08T00:24:19.360Z,100.00
2023-09-08T00:26:46.313Z,100.00
2023-09-08T00:29:13.162Z,100.00
2023-09-08T00:31:39.950Z,100.00
2023-09-08T00:34:07.763Z,100.00
2023-09-08T00:36:34.825Z,100.00
2023-09-08T00:39:01.504Z,100.00
2023-09-08T00:41:28.210Z,100.00
2023-09-08T00:43:54.869Z,100.00
2023-09-08T00:46:21.892Z,100.00
2023-09-08T00:48:48.777Z,100.00
2023-09-08T00:51:15.868Z,100.00
2023-09-08T00:53:43.011Z,100.00
2023-09-08T00:56:11.389Z,100.00
2023-09-08T00:58:38.547Z,100.00
2023-09-08T01:01:07.057Z,100.00
2023-09-08T01:03:34.139Z,100.00
2023-09-08T01:06:01.754Z,100.00
2023-09-08T01:08:29.178Z,100.00
2023-09-08T01:10:56.451Z,100.00
2023-09-08T01:13:23.072Z,100.00
2023-09-08T01:15:50.806Z,100.00
2023-09-08T01:18:17.826Z,100.00
2023-09-08T01:20:59.790Z,100.00
2023-09-08T01:23:50.370Z,100.00
2023-09-08T01:26:22.714Z,100.00
2023-09-08T01:28:51.435Z,100.00
2023-09-08T01:31:19.181Z,100.00
2023-09-08T01:33:46.786Z,100.00
2023-09-08T01:36:15.537Z,100.00
2023-09-08T01:38:42.299Z,100.00
2023-09-08T01:41:09.183Z,100.00
2023-09-08T01:43:36.083Z,100.00
2023-09-08T01:46:02.882Z,100.00
2023-09-08T01:48:29.604Z,100.00
2023-09-08T01:50:56.270Z,100.00
2023-09-08T01:53:23.021Z,100.00
2023-09-08T01:55:49.603Z,100.00
2023-09-08T01:58:16.318Z,100.00
2023-09-08T02:00:43.069Z,100.00
2023-09-08T02:03:09.762Z,100.00
2023-09-08T02:05:40.326Z,100.00
2023-09-08T02:08:07.187Z,100.00
2023-09-08T02:10:33.845Z,100.00
2023-09-08T02:13:00.593Z,100.00
2023-09-08T02:15:27.345Z,100.00
2023-09-08T02:17:56.193Z,100.00
2023-09-08T02:20:23.124Z,100.00
2023-09-08T02:22:54.477Z,100.00
2023-09-08T02:25:21.187Z,100.00
2023-09-08T02:27:47.814Z,100.00
2023-09-08T02:30:14.579Z,100.00
2023-09-08T02:32:44.385Z,100.00
2023-09-08T02:35:11.322Z,100.00
2023-09-08T02:37:38.183Z,100.00
2023-09-08T02:40:07.127Z,100.00
2023-09-08T02:42:34.123Z,100.00
2023-09-08T02:45:01.168Z,100.00
2023-09-08T02:47:27.844Z,100.00
2023-09-08T02:49:54.449Z,100.00
2023-09-08T02:52:21.120Z,100.00
2023-09-08T02:54:47.815Z,100.00
2023-09-08T02:57:14.467Z,100.00
2023-09-08T02:59:41.146Z,100.00
2023-09-08T03:02:07.881Z,100.00
2023-09-08T03:04:34.725Z,100.00
2023-09-08T03:07:01.382Z,100.00
2023-09-08T03:09:28.040Z,100.00
2023-09-08T03:11:54.688Z,100.00
2023-09-08T03:14:21.397Z,100.00
2023-09-08T03:16:48.201Z,100.00
2023-09-08T03:19:14.849Z,100.00
2023-09-08T03:21:41.437Z,100.00
2023-09-08T03:24:08.142Z,100.00
2023-09-08T03:26:34.819Z,100.00
2023-09-08T03:29:01.520Z,100.00
2023-09-08T03:31:28.819Z,100.00
2023-09-08T03:33:55.812Z,100.00
2023-09-08T03:36:22.587Z,100.00
2023-09-08T03:38:49.246Z,100.00
2023-09-08T03:41:16.043Z,100.00
2023-09-08T03:43:42.717Z,100.00
2023-09-08T03:46:09.406Z,100.00
2023-09-08T03:48:36.115Z,100.00
2023-09-08T03:51:02.747Z,100.00
2023-09-08T03:53:29.533Z,100.00
2023-09-08T03:55:56.234Z,100.00
2023-09-08T03:58:22.907Z,100.00
2023-09-08T04:00:49.790Z,100.00
2023-09-08T04:03:16.658Z,100.00
2023-09-08T04:05:43.320Z,100.00
2023-09-08T04:08:10.267Z,100.00
2023-09-08T04:10:36.903Z,100.00
2023-09-08T04:13:03.677Z,100.00
2023-09-08T04:15:30.413Z,100.00
2023-09-08T04:17:58.393Z,100.00
2023-09-08T04:20:27.067Z,100.00
2023-09-08T04:22:53.713Z,100.00
2023-09-08T04:25:20.464Z,100.00
2023-09-08T04:27:47.108Z,100.00
2023-09-08T04:30:15.472Z,100.00
2023-09-08T04:32:42.534Z,100.00
2023-09-08T04:35:09.543Z,100.00
2023-09-08T04:37:37.616Z,100.00
2023-09-08T04:40:05.596Z,100.00
2023-09-08T04:42:32.557Z,100.00
2023-09-08T04:44:59.391Z,100.00
2023-09-08T04:47:26.130Z,100.00
2023-09-08T04:49:52.794Z,100.00
2023-09-08T04:52:19.594Z,100.00
2023-09-08T04:54:46.842Z,100.00
2023-09-08T04:57:22.909Z,100.00
2023-09-08T04:59:51.106Z,100.00
2023-09-08T05:02:19.704Z,100.00
2023-09-08T05:04:46.542Z,100.00
2023-09-08T05:07:14.639Z,100.00
2023-09-08T05:09:41.624Z,100.00
2023-09-08T05:12:08.351Z,100.00
2023-09-08T05:14:35.251Z,100.00
2023-09-08T05:17:01.896Z,100.00
2023-09-08T05:19:28.589Z,100.00
2023-09-08T05:21:56.150Z,100.00
2023-09-08T05:24:23.039Z,100.00
2023-09-08T05:26:49.927Z,100.00
2023-09-08T05:29:16.585Z,100.00
2023-09-08T05:31:43.321Z,100.00
2023-09-08T05:34:10.479Z,100.00
2023-09-08T05:36:39.469Z,100.00
2023-09-08T05:39:06.508Z,100.00
2023-09-08T05:41:35.036Z,100.00
2023-09-08T05:44:02.106Z,100.00
2023-09-08T05:46:29.141Z,100.00
2023-09-08T05:48:55.860Z,100.00
2023-09-08T05:51:23.761Z,100.00
2023-09-08T05:53:50.536Z,100.00
2023-09-08T05:56:19.637Z,100.00
2023-09-08T05:58:46.382Z,100.00
2023-09-08T06:01:13.077Z,100.00
2023-09-08T06:03:39.873Z,100.00
2023-09-08T06:06:06.727Z,100.00
2023-09-08T06:08:33.814Z,100.00
2023-09-08T06:11:00.707Z,100.00
2023-09-08T06:13:28.011Z,100.00
2023-09-08T06:15:54.849Z,100.00
2023-09-08T06:18:22.038Z,100.00
2023-09-08T06:20:55.913Z,100.00
2023-09-08T06:23:23.996Z,100.00
2023-09-08T06:25:50.917Z,100.00
2023-09-08T06:28:17.527Z,100.00
2023-09-08T06:30:44.229Z,100.00
2023-09-08T06:33:11.451Z,100.00
2023-09-08T06:35:38.445Z,100.00
2023-09-08T06:38:05.835Z,100.00
2023-09-08T06:40:32.544Z,100.00
2023-09-08T06:43:01.371Z,100.00
2023-09-08T06:45:29.678Z,100.00
2023-09-08T06:47:56.663Z,100.00
2023-09-08T06:50:24.307Z,100.00
2023-09-08T06:52:51.649Z,100.00
2023-09-08T06:55:18.606Z,100.00
2023-09-08T06:57:45.907Z,100.00
2023-09-08T07:00:14.118Z,100.00
2023-09-08T07:02:42.911Z,100.00
2023-09-08T07:05:09.970Z,100.00
2023-09-08T07:07:36.975Z,100.00
2023-09-08T07:10:07.615Z,100.00
2023-09-08T07:12:34.458Z,100.00
2023-09-08T07:15:01.262Z,100.00
2023-09-08T07:17:28.105Z,100.00
2023-09-08T07:19:54.941Z,94.89
2023-09-08T07:22:21.765Z,92.08
2023-09-08T07:24:48.399Z,93.26
2023-09-08T07:27:15.555Z,92.02
2023-09-08T07:29:42.465Z,85.80
2023-09-08T07:32:09.368Z,90.26
2023-09-08T07:34:36.070Z,96.12
2023-09-08T07:37:02.742Z,98.36
2023-09-08T07:39:29.476Z,98.36
2023-09-08T07:41:59.091Z,96.85
2023-09-08T07:44:28.395Z,95.78
2023-09-08T07:46:57.274Z,94.30
2023-09-08T07:49:25.225Z,93.42
2023-09-08T07:51:52.805Z,93.97
2023-09-08T07:54:20.657Z,93.37
2023-09-08T07:56:48.054Z,91.76
2023-09-08T07:59:14.961Z,90.11
2023-09-08T08:01:41.856Z,85.74
2023-09-08T08:04:09.492Z,87.99
2023-09-08T08:06:36.628Z,83.63
2023-09-08T08:09:03.800Z,87.86
2023-09-08T08:11:30.920Z,80.22
2023-09-08T08:14:00.522Z,84.15
2023-09-08T08:16:27.266Z,87.28
2023-09-08T08:18:54.047Z,86.53
2023-09-08T08:21:21.942Z,78.49
2023-09-08T08:23:48.656Z,76.74
2023-09-08T08:26:15.378Z,76.21
2023-09-08T08:28:42.105Z,69.09
2023-09-08T08:31:08.998Z,70.00
2023-09-08T08:33:37.943Z,70.26
2023-09-08T08:36:04.774Z,69.88
2023-09-08T08:38:31.442Z,68.44
2023-09-08T08:41:04.797Z,67.38
2023-09-08T08:43:33.440Z,66.08
2023-09-08T08:46:01.414Z,67.96
2023-09-08T08:48:31.094Z,68.62
2023-09-08T08:50:59.615Z,69.92
2023-09-08T08:53:28.267Z,69.33
2023-09-08T08:55:58.242Z,62.23
2023-09-08T08:58:27.887Z,59.63
2023-09-08T09:00:58.589Z,70.45
2023-09-08T09:03:27.237Z,100.00
2023-09-08T09:05:54.687Z,70.45
2023-09-08T09:08:23.266Z,62.43
2023-09-08T09:10:50.068Z,63.63
2023-09-08T09:13:16.831Z,61.51
2023-09-08T09:15:45.420Z,64.99
2023-09-08T09:18:13.118Z,61.27
2023-09-08T09:20:42.400Z,60.18
2023-09-08T09:23:10.095Z,100.00
2023-09-08T09:25:37.493Z,100.00
2023-09-08T09:28:05.026Z,100.00
2023-09-08T09:30:53.137Z,60.18
2023-09-08T09:33:20.606Z,55.99
2023-09-08T09:35:50.975Z,63.32
2023-09-08T09:38:20.476Z,58.70
2023-09-08T09:40:48.534Z,63.05
2023-09-08T09:43:18.389Z,100.00
2023-09-08T09:45:46.256Z,100.00
2023-09-08T09:48:13.590Z,100.00
2023-09-08T09:50:42.386Z,100.00
2023-09-08T09:53:12.436Z,100.00
2023-09-08T09:55:40.290Z,100.00
2023-09-08T09:58:08.267Z,100.00
2023-09-08T10:00:36.452Z,100.00
2023-09-08T10:03:04.359Z,100.00
2023-09-08T10:05:31.246Z,100.00
2023-09-08T10:07:59.280Z,100.00
2023-09-08T10:10:28.553Z,100.00
2023-09-08T10:12:58.525Z,100.00
2023-09-08T10:15:25.899Z,100.00
2023-09-08T10:17:58.334Z,100.00
2023-09-08T10:20:26.812Z,100.00
2023-09-08T10:23:21.496Z,100.00
2023-09-08T10:25:55.652Z,100.00
2023-09-08T10:28:26.261Z,100.00
2023-09-08T10:30:54.402Z,100.00
2023-09-08T10:33:22.236Z,100.00
2023-09-08T10:35:49.162Z,100.00
2023-09-08T10:38:35.079Z,100.00
2023-09-08T10:41:17.645Z,100.00
2023-09-08T10:43:55.667Z,100.00
2023-09-08T10:46:28.886Z,100.00
2023-09-08T10:49:03.219Z,100.00
2023-09-08T10:51:30.383Z,100.00
2023-09-08T10:53:58.031Z,100.00
2023-09-08T10:56:49.984Z,100.00
2023-09-08T10:59:17.161Z,100.00
2023-09-08T11:01:43.951Z,100.00
2023-09-08T11:04:12.025Z,100.00
2023-09-08T11:06:38.698Z,100.00
2023-09-08T11:09:09.411Z,100.00
2023-09-08T11:11:38.156Z,100.00
2023-09-08T11:14:05.444Z,100.00
2023-09-08T11:16:34.936Z,100.00
2023-09-08T11:19:05.710Z,100.00
2023-09-08T11:21:38.033Z,100.00
2023-09-08T11:24:07.291Z,100.00
2023-09-08T11:26:35.629Z,100.00
2023-09-08T11:29:02.420Z,100.00
2023-09-08T11:31:29.137Z,100.00
2023-09-08T11:33:56.790Z,100.00
2023-09-08T11:36:23.479Z,100.00
2023-09-08T11:38:50.517Z,100.00
2023-09-08T11:41:17.931Z,100.00
2023-09-08T11:43:44.733Z,100.00
2023-09-08T11:46:13.772Z,100.00
2023-09-08T11:48:40.901Z,100.00
2023-09-08T11:51:09.179Z,100.00
2023-09-08T11:53:38.391Z,100.00
2023-09-08T11:56:05.941Z,100.00
2023-09-08T11:58:33.549Z,100.00
2023-09-08T12:01:00.603Z,100.00
2023-09-08T12:03:27.369Z,100.00
2023-09-08T12:05:54.647Z,100.00
2023-09-08T12:08:21.409Z,100.00
2023-09-08T12:10:48.122Z,100.00
2023-09-08T12:13:22.246Z,100.00
2023-09-08T12:15:49.148Z,100.00
2023-09-08T12:18:17.044Z,100.00
2023-09-08T12:20:44.755Z,100.00
2023-09-08T12:23:22.950Z,100.00
2023-09-08T12:25:51.488Z,100.00
2023-09-08T12:28:20.488Z,100.00
2023-09-08T12:30:47.911Z,100.00
2023-09-08T12:33:16.343Z,100.00
2023-09-08T12:35:49.506Z,100.00
2023-09-08T12:38:16.246Z,100.00
2023-09-08T12:40:42.943Z,100.00
2023-09-08T12:43:14.085Z,100.00
2023-09-08T12:45:53.044Z,100.00
2023-09-08T12:48:20.160Z,100.00
2023-09-08T12:50:49.432Z,47.54
2023-09-08T12:53:17.889Z,48.23
2023-09-08T12:55:44.924Z,46.49
2023-09-08T12:58:11.544Z,43.90
2023-09-08T13:00:38.256Z,39.18
2023-09-08T13:03:05.562Z,42.43
2023-09-08T13:05:35.113Z,47.01
2023-09-08T13:08:01.989Z,50.35
2023-09-08T13:10:28.709Z,43.23
2023-09-08T13:12:56.113Z,47.01
2023-09-08T13:15:24.035Z,39.37
2023-09-08T13:17:50.909Z,44.32
2023-09-08T13:20:17.881Z,40.00
2023-09-08T13:22:45.358Z,47.44
2023-09-08T13:25:12.166Z,40.09
2023-09-08T13:27:41.382Z,38.85
2023-09-08T13:30:11.698Z,42.90
2023-09-08T13:32:39.175Z,44.81
2023-09-08T13:35:07.658Z,35.53
2023-09-08T13:37:35.694Z,40.82
2023-09-08T13:40:05.353Z,44.62
2023-09-08T13:42:32.254Z,36.21
2023-09-08T13:44:59.250Z,39.39
2023-09-08T13:47:26.492Z,46.00
2023-09-08T13:49:55.632Z,38.11
2023-09-08T13:52:28.405Z,45.69
2023-09-08T13:57:29.206Z,43.65
2023-09-08T13:59:57.697Z,37.92
2023-09-08T14:04:56.076Z,39.85
2023-09-08T14:07:27.817Z,39.25
2023-09-08T14:12:34.298Z,38.42
2023-09-08T14:15:04.440Z,41.02
2023-09-08T14:17:31.249Z,42.72
2023-09-08T14:19:58.148Z,42.44
2023-09-08T14:22:25.723Z,39.11
2023-09-08T14:24:52.454Z,43.26
2023-09-08T14:27:19.651Z,46.03
2023-09-08T14:29:46.343Z,42.43
2023-09-08T14:32:13.069Z,41.60
2023-09-08T14:34:39.783Z,39.68
2023-09-08T14:37:08.731Z,40.41
2023-09-08T14:39:37.650Z,37.38
2023-09-08T14:42:06.925Z,39.95
2023-09-08T14:44:33.975Z,39.09
2023-09-08T14:47:02.428Z,43.00
2023-09-08T14:49:29.217Z,41.43
2023-09-08T14:51:55.901Z,41.07
2023-09-08T14:54:22.806Z,43.48
2023-09-08T14:56:49.462Z,43.69
2023-09-08T14:59:16.186Z,42.97
2023-09-08T15:01:44.553Z,41.49
2023-09-08T15:04:12.006Z,38.55
2023-09-08T15:06:38.708Z,43.81
2023-09-08T15:09:06.307Z,46.68
2023-09-08T15:11:32.983Z,37.98
2023-09-08T15:13:59.695Z,41.96
2023-09-08T15:16:27.863Z,42.75
2023-09-08T15:18:56.121Z,44.22
2023-09-08T15:21:28.517Z,41.05
2023-09-08T15:23:55.290Z,45.43
2023-09-08T15:26:22.108Z,40.53
2023-09-08T15:28:48.873Z,44.88
2023-09-08T15:31:19.117Z,41.14
2023-09-08T15:33:46.437Z,43.91
2023-09-08T15:36:13.894Z,46.04
2023-09-08T15:38:41.509Z,43.41
2023-09-08T15:41:08.338Z,40.86
2023-09-08T15:43:40.278Z,40.85
2023-09-08T15:46:07.865Z,41.44
2023-09-08T15:48:35.803Z,42.58
2023-09-08T15:51:02.713Z,45.96
2023-09-08T15:53:29.421Z,43.91
2023-09-08T15:55:56.705Z,42.72
2023-09-08T15:58:23.364Z,44.53
2023-09-08T16:00:50.218Z,45.48
2023-09-08T16:03:17.269Z,45.03
2023-09-08T16:05:44.155Z,42.39
2023-09-08T16:08:10.853Z,46.62
2023-09-08T16:10:37.472Z,45.89
2023-09-08T16:13:04.234Z,43.85
2023-09-08T16:15:31.057Z,46.04
2023-09-08T16:18:00.174Z,45.07
2023-09-08T16:20:27.160Z,45.34
2023-09-08T16:22:53.926Z,43.75
2023-09-08T16:25:20.573Z,45.18
2023-09-08T16:27:47.306Z,47.18
2023-09-08T16:30:14.277Z,47.53
2023-09-08T16:32:41.229Z,46.98
2023-09-08T16:35:08.691Z,47.30
2023-09-08T16:37:35.651Z,48.29
2023-09-08T16:40:02.386Z,47.28
2023-09-08T16:42:29.257Z,48.83
2023-09-08T16:44:55.940Z,100.00
2023-09-08T16:47:24.490Z,48.83
2023-09-08T16:49:51.753Z,50.53
2023-09-08T16:52:18.566Z,50.05
2023-09-08T16:54:47.140Z,51.74
2023-09-08T16:57:17.031Z,52.79
2023-09-08T16:59:43.837Z,54.51
2023-09-08T17:02:10.657Z,56.10
2023-09-08T17:04:37.355Z,55.92
2023-09-08T17:07:04.542Z,57.92
2023-09-08T17:09:31.277Z,59.27
2023-09-08T17:11:57.958Z,60.04
2023-09-08T17:14:24.946Z,62.40
2023-09-08T17:16:51.708Z,64.15
2023-09-08T17:19:18.311Z,63.97
2023-09-08T17:21:46.118Z,64.99
2023-09-08T17:24:13.744Z,67.32
2023-09-08T17:26:40.543Z,69.44
2023-09-08T17:29:08.970Z,100.00
2023-09-08T17:31:36.138Z,100.00
2023-09-08T17:34:03.157Z,100.00
2023-09-08T17:36:30.026Z,100.00
2023-09-08T17:38:57.019Z,100.00
2023-09-08T17:41:23.626Z,100.00
2023-09-08T17:43:50.339Z,74.77
2023-09-08T17:46:17.146Z,75.09
2023-09-08T17:48:43.887Z,74.28
2023-09-08T17:51:10.670Z,73.54
2023-09-08T17:53:38.540Z,72.21
2023-09-08T17:56:05.667Z,71.69
2023-09-08T17:58:32.327Z,71.12
2023-09-08T18:00:59.107Z,70.70
2023-09-08T18:03:26.023Z,72.24
2023-09-08T18:05:52.791Z,72.51
2023-09-08T18:08:19.547Z,73.56
2023-09-08T18:10:47.663Z,74.75
2023-09-08T18:13:14.538Z,74.16
2023-09-08T18:15:41.376Z,75.26
2023-09-08T18:18:08.148Z,76.88
2023-09-08T18:20:35.352Z,77.61
2023-09-08T18:23:01.967Z,77.47
2023-09-08T18:25:28.780Z,78.01
2023-09-08T18:27:55.598Z,77.68
2023-09-08T18:30:22.387Z,77.68
2023-09-08T18:32:49.456Z,77.57
2023-09-08T18:35:16.545Z,78.39
2023-09-08T18:37:43.287Z,77.18
2023-09-08T18:40:11.690Z,78.71
2023-09-08T18:42:39.774Z,76.58
2023-09-08T18:45:07.041Z,80.09
2023-09-08T18:47:33.866Z,80.00
2023-09-08T18:50:00.885Z,77.56
2023-09-08T18:52:27.659Z,78.95
2023-09-08T18:54:54.292Z,79.09
2023-09-08T18:57:20.951Z,81.63
2023-09-08T18:59:50.152Z,81.70
2023-09-08T19:02:17.015Z,82.52
2023-09-08T19:04:44.024Z,82.89
2023-09-08T19:07:10.756Z,82.85
2023-09-08T19:09:37.439Z,83.92
2023-09-08T19:12:04.311Z,83.89
2023-09-08T19:14:31.122Z,83.43
2023-09-08T19:16:58.871Z,84.43
2023-09-08T19:19:25.867Z,85.92
2023-09-08T19:21:52.457Z,86.53
2023-09-08T19:24:20.283Z,88.02
2023-09-08T19:26:47.137Z,88.15
2023-09-08T19:29:13.961Z,89.36
2023-09-08T19:31:40.624Z,92.13
2023-09-08T19:34:08.292Z,91.56
2023-09-08T19:36:35.075Z,90.27
2023-09-08T19:39:01.758Z,92.44
2023-09-08T19:41:28.509Z,94.87
2023-09-08T19:43:55.128Z,94.74
2023-09-08T19:46:21.967Z,96.56
2023-09-08T19:48:48.734Z,94.50
2023-09-08T19:51:16.168Z,95.94
2023-09-08T19:53:42.943Z,97.37
2023-09-08T19:56:09.789Z,96.02
2023-09-08T19:58:36.473Z,96.87
2023-09-08T20:01:07.996Z,98.61
2023-09-08T20:03:35.470Z,96.42
2023-09-08T20:06:02.898Z,98.50
2023-09-08T20:08:29.904Z,98.86
2023-09-08T20:10:56.827Z,99.04
2023-09-08T20:13:24.108Z,98.51
2023-09-08T20:16:07.471Z,99.43
2023-09-08T20:18:35.506Z,99.03
2023-09-08T20:21:04.073Z,100.00
2023-09-08T20:23:35.524Z,100.00
2023-09-08T20:26:03.712Z,100.00
2023-09-08T20:28:30.428Z,100.00
2023-09-08T20:33:26.745Z,100.00
2023-09-08T20:35:53.545Z,100.00
2023-09-08T20:38:20.711Z,100.00
2023-09-08T20:40:54.093Z,100.00
2023-09-08T20:43:23.945Z,100.00
2023-09-08T20:45:55.525Z,100.00
2023-09-08T20:48:22.571Z,100.00
2023-09-08T20:50:58.544Z,100.00
2023-09-08T20:53:25.168Z,100.00
2023-09-08T20:55:51.788Z,100.00
2023-09-08T20:58:18.440Z,100.00
2023-09-08T21:00:45.096Z,100.00
2023-09-08T21:03:11.907Z,100.00
2023-09-08T21:05:38.753Z,100.00
2023-09-08T21:08:05.853Z,100.00
2023-09-08T21:10:33.090Z,100.00
2023-09-08T21:12:59.734Z,100.00
2023-09-08T21:15:26.504Z,100.00
2023-09-08T21:17:53.281Z,100.00
2023-09-08T21:20:20.420Z,100.00
2023-09-08T21:22:47.157Z,100.00
2023-09-08T21:25:13.783Z,100.00
2023-09-08T21:27:40.497Z,100.00
2023-09-08T21:30:07.973Z,100.00
2023-09-08T21:32:34.675Z,100.00
2023-09-08T21:35:01.394Z,100.00
2023-09-08T21:37:28.461Z,100.00
2023-09-08T21:39:55.103Z,100.00
2023-09-08T21:42:21.698Z,100.00
2023-09-08T21:44:48.378Z,100.00
2023-09-08T21:47:16.353Z,100.00
2023-09-08T21:49:43.135Z,100.00
2023-09-08T21:52:10.033Z,100.00
2023-09-08T21:54:37.316Z,100.00
2023-09-08T21:57:04.187Z,100.00
2023-09-08T21:59:31.702Z,100.00
2023-09-08T22:01:58.588Z,100.00
2023-09-08T22:04:25.931Z,100.00
2023-09-08T22:06:53.913Z,100.00
2023-09-08T22:09:21.773Z,100.00
2023-09-08T22:11:51.605Z,100.00
2023-09-08T22:14:18.749Z,100.00
2023-09-08T22:16:45.594Z,100.00
2023-09-08T22:19:12.852Z,100.00
2023-09-08T22:21:39.754Z,100.00
2023-09-08T22:24:06.787Z,100.00
2023-09-08T22:26:33.643Z,100.00
2023-09-08T22:29:00.350Z,100.00
2023-09-08T22:31:27.106Z,100.00
2023-09-08T22:33:53.990Z,100.00
2023-09-08T22:36:21.184Z,100.00
2023-09-08T22:38:48.602Z,100.00
2023-09-08T22:41:15.340Z,100.00
2023-09-08T22:43:41.937Z,100.00
2023-09-08T22:46:08.891Z,100.00
2023-09-08T22:48:36.387Z,100.00
2023-09-08T22:51:04.857Z,100.00
2023-09-08T22:53:31.717Z,100.00
2023-09-08T22:55:58.676Z,100.00
2023-09-08T22:58:26.398Z,100.00
2023-09-08T23:00:53.140Z,100.00
2023-09-08T23:03:19.986Z,100.00
2023-09-08T23:05:46.779Z,100.00
2023-09-08T23:08:13.478Z,100.00
2023-09-08T23:10:40.098Z,100.00
2023-09-08T23:13:06.788Z,100.00
2023-09-08T23:15:34.394Z,100.00
2023-09-08T23:18:01.166Z,100.00
2023-09-08T23:20:27.996Z,100.00
2023-09-08T23:22:54.649Z,100.00
2023-09-08T23:25:21.221Z,100.00
2023-09-08T23:27:47.985Z,100.00
2023-09-08T23:30:14.728Z,100.00
2023-09-08T23:32:44.244Z,100.00
2023-09-08T23:40:55.698Z,100.00
2023-09-08T23:43:22.423Z,100.00
2023-09-08T23:48:40.044Z,100.00
2023-09-08T23:51:06.672Z,100.00
2023-09-08T23:59:15.691Z,100.00
